createdAt,value
2023-07-27T01:21:14.840Z,51764.75
2023-07-27T01:24:00.643Z,51780.42
2023-07-27T01:27:02.727Z,51774.39
2023-07-27T01:30:07.303Z,51787.25
2023-07-27T01:32:39.823Z,51801.71
2023-07-27T01:35:14.195Z,51804.13
2023-07-27T01:37:46.132Z,51804.13
2023-07-27T01:40:18.354Z,51817.79
2023-07-27T01:42:50.328Z,51826.63
2023-07-27T01:45:22.477Z,51817.38
2023-07-27T01:47:55.681Z,51814.57
2023-07-27T01:50:27.696Z,51826.23
2023-07-27T01:52:59.557Z,51830.24
2023-07-27T01:55:31.784Z,51830.64
2023-07-27T01:58:04.076Z,51821.40
2023-07-27T02:00:36.117Z,51811.76
2023-07-27T02:03:08.259Z,51832.25
2023-07-27T02:05:40.596Z,51846.72
2023-07-27T02:08:13.559Z,51823.41
2023-07-27T02:10:45.707Z,51840.29
2023-07-27T02:13:20.063Z,51829.84
2023-07-27T02:15:53.830Z,51833.05
2023-07-27T02:18:26.016Z,51835.87
2023-07-27T02:20:58.009Z,51855.55
2023-07-27T02:23:29.998Z,51845.92
2023-07-27T02:26:02.373Z,51831.45
2023-07-27T02:28:34.740Z,51847.93
2023-07-27T02:31:07.059Z,51835.47
2023-07-27T02:33:39.127Z,51835.07
2023-07-27T02:36:11.311Z,51831.05
2023-07-27T02:38:43.681Z,51839.08
2023-07-27T02:41:15.787Z,51826.63
2023-07-27T02:43:47.970Z,51836.27
2023-07-27T02:46:20.090Z,51821.80
2023-07-27T02:48:54.933Z,51837.48
2023-07-27T02:51:27.116Z,51825.02
2023-07-27T02:54:01.875Z,51832.65
2023-07-27T02:56:36.270Z,51837.48
2023-07-27T02:59:08.328Z,51843.91
2023-07-27T03:01:45.309Z,51826.63
2023-07-27T03:04:21.947Z,51821.80
2023-07-27T03:06:54.283Z,51826.23
2023-07-27T03:09:27.145Z,51825.43
2023-07-27T03:11:59.202Z,51827.83
2023-07-27T03:14:31.143Z,51828.24
2023-07-27T03:17:03.453Z,51825.42
2023-07-27T03:19:35.545Z,51825.02
2023-07-27T03:22:08.187Z,51811.36
2023-07-27T03:24:40.219Z,51830.24
2023-07-27T03:27:12.372Z,51818.99
2023-07-27T03:29:44.698Z,51823.41
2023-07-27T03:32:16.900Z,51789.66
2023-07-27T03:34:48.754Z,51796.09
2023-07-27T03:37:22.282Z,51815.38
2023-07-27T03:39:54.214Z,51803.72
2023-07-27T03:42:27.388Z,51794.88
2023-07-27T03:44:59.515Z,51794.48
2023-07-27T03:47:31.657Z,51791.27
2023-07-27T03:50:03.929Z,51784.84
2023-07-27T03:52:36.069Z,51779.61
2023-07-27T03:55:11.015Z,51784.04
2023-07-27T03:57:43.373Z,51798.90
2023-07-27T04:00:17.096Z,51780.82
2023-07-27T04:02:52.536Z,51778.41
2023-07-27T04:05:24.698Z,51776.80
2023-07-27T04:07:57.011Z,51771.58
2023-07-27T04:10:31.186Z,51776.40
2023-07-27T04:13:03.672Z,51781.22
2023-07-27T04:15:36.093Z,51802.92
2023-07-27T04:18:08.294Z,51774.39
2023-07-27T04:20:40.436Z,51765.95
2023-07-27T04:23:12.401Z,51780.41
2023-07-27T04:25:44.991Z,51760.32
2023-07-27T04:28:17.046Z,51758.72
2023-07-27T04:30:49.172Z,51767.16
2023-07-27T04:33:21.198Z,51777.21
2023-07-27T04:35:53.286Z,51777.20
2023-07-27T04:38:25.288Z,51771.18
2023-07-27T04:40:57.494Z,51764.35
2023-07-27T04:43:29.471Z,51763.54
2023-07-27T04:46:01.625Z,51768.77
2023-07-27T04:48:33.805Z,51756.71
2023-07-27T04:51:06.244Z,51751.89
2023-07-27T04:53:38.162Z,51758.72
2023-07-27T04:56:10.271Z,51755.11
2023-07-27T04:58:42.256Z,51757.52
2023-07-27T05:01:14.492Z,51751.89
2023-07-27T05:03:46.973Z,51752.29
2023-07-27T05:06:19.052Z,51750.68
2023-07-27T05:08:51.143Z,51752.29
2023-07-27T05:11:23.255Z,51745.05
2023-07-27T05:13:55.475Z,51740.64
2023-07-27T05:16:27.520Z,51740.24
2023-07-27T05:19:00.070Z,51744.66
2023-07-27T05:21:32.208Z,51730.20
2023-07-27T05:24:04.461Z,51707.29
2023-07-27T05:26:36.834Z,51718.14
2023-07-27T05:29:09.434Z,51741.84
2023-07-27T05:31:41.863Z,51714.12
2023-07-27T05:34:14.212Z,51710.50
2023-07-27T05:36:46.312Z,51718.13
2023-07-27T05:39:18.205Z,51732.60
2023-07-27T05:41:50.246Z,51714.52
2023-07-27T05:44:23.222Z,51716.93
2023-07-27T05:46:58.072Z,51712.92
2023-07-27T05:49:30.146Z,51707.29
2023-07-27T05:52:02.332Z,51736.62
2023-07-27T05:54:34.488Z,51729.79
2023-07-27T05:57:07.370Z,51724.57
2023-07-27T05:59:43.795Z,51723.77
2023-07-27T06:02:21.148Z,51698.45
2023-07-27T06:04:53.394Z,51712.91
2023-07-27T06:07:27.467Z,51702.87
2023-07-27T06:09:59.453Z,51694.43
2023-07-27T06:12:31.961Z,51702.47
2023-07-27T06:15:03.949Z,51678.36
2023-07-27T06:17:36.039Z,51695.64
2023-07-27T06:20:10.606Z,51683.18
2023-07-27T06:22:43.111Z,51702.07
2023-07-27T06:25:15.523Z,51670.32
2023-07-27T06:27:47.461Z,51657.06
2023-07-27T06:30:20.273Z,51672.33
2023-07-27T06:32:52.350Z,51660.28
2023-07-27T06:35:25.052Z,51653.85
2023-07-27T06:37:57.162Z,51652.64
2023-07-27T06:40:29.294Z,51655.86
2023-07-27T06:43:01.571Z,51635.37
2023-07-27T06:45:35.681Z,51648.63
2023-07-27T06:48:08.521Z,51636.17
2023-07-27T06:50:41.923Z,51638.58
2023-07-27T06:53:14.156Z,51649.43
2023-07-27T06:55:48.243Z,51640.19
2023-07-27T06:58:20.351Z,51639.79
2023-07-27T07:00:52.598Z,51648.22
2023-07-27T07:03:24.618Z,51639.38
2023-07-27T07:05:57.725Z,51613.27
2023-07-27T07:08:30.725Z,51624.92
2023-07-27T07:11:02.834Z,51615.27
2023-07-27T07:13:34.827Z,51632.15
2023-07-27T07:16:07.735Z,51623.71
2023-07-27T07:18:40.052Z,51620.50
2023-07-27T07:21:13.127Z,51618.89
2023-07-27T07:23:45.252Z,51620.50
2023-07-27T07:26:17.941Z,51608.45
2023-07-27T07:28:49.854Z,51593.18
2023-07-27T07:31:21.919Z,51595.59
2023-07-27T07:33:54.093Z,51610.05
2023-07-27T07:36:27.080Z,51603.23
2023-07-27T07:38:59.220Z,51589.96
2023-07-27T07:41:31.365Z,51599.21
2023-07-27T07:44:03.358Z,51579.91
